sensor_id;sensor_type;location;lat;lon;timestamp;temperature;humidity
10889;DHT22;5497;51.388;6.780;2022-12-11T00:01:45;2.60;99.90
10889;DHT22;5497;51.388;6.780;2022-12-11T00:04:12;2.60;99.90
10889;DHT22;5497;51.388;6.780;2022-12-11T00:06:41;2.60;99.90
10889;DHT22;5497;51.388;6.780;2022-12-11T00:09:08;2.60;99.90
10889;DHT22;5497;51.388;6.780;2022-12-11T00:11:35;2.60;99.90
10889;DHT22;5497;51.388;6.780;2022-12-11T00:14:02;2.60;99.90
10889;DHT22;5497;51.388;6.780;2022-12-11T00:16:29;2.60;99.90
10889;DHT22;5497;51.388;6.780;2022-12-11T00:18:56;2.60;99.90
10889;DHT22;5497;51.388;6.780;2022-12-11T00:21:23;2.60;99.90
10889;DHT22;5497;51.388;6.780;2022-12-11T00:23:52;2.50;99.90
10889;DHT22;5497;51.388;6.780;2022-12-11T00:26:19;2.50;99.90
10889;DHT22;5497;51.388;6.780;2022-12-11T00:28:46;2.50;99.90
10889;DHT22;5497;51.388;6.780;2022-12-11T00:31:15;2.50;99.90
10889;DHT22;5497;51.388;6.780;2022-12-11T00:33:44;2.60;99.90
10889;DHT22;5497;51.388;6.780;2022-12-11T00:36:14;2.60;99.90
10889;DHT22;5497;51.388;6.780;2022-12-11T00:38:41;2.60;99.90
10889;DHT22;5497;51.388;6.780;2022-12-11T00:41:16;2.50;99.90
10889;DHT22;5497;51.388;6.780;2022-12-11T00:43:43;1.30;99.90
10889;DHT22;5497;51.388;6.780;2022-12-11T00:46:10;2.50;99.90
10889;DHT22;5497;51.388;6.780;2022-12-11T00:48:37;2.50;99.90
10889;DHT22;5497;51.388;6.780;2022-12-11T00:51:05;2.40;99.90
10889;DHT22;5497;51.388;6.780;2022-12-11T00:53:32;2.40;99.90
10889;DHT22;5497;51.388;6.780;2022-12-11T00:55:59;2.40;99.90
10889;DHT22;5497;51.388;6.780;2022-12-11T00:58:27;2.40;99.90
10889;DHT22;5497;51.388;6.780;2022-12-11T01:01:03;2.40;99.90
10889;DHT22;5497;51.388;6.780;2022-12-11T01:03:30;2.40;99.90
10889;DHT22;5497;51.388;6.780;2022-12-11T01:05:57;2.50;99.90
10889;DHT22;5497;51.388;6.780;2022-12-11T01:08:24;2.50;99.90
10889;DHT22;5497;51.388;6.780;2022-12-11T01:10:59;2.50;99.90
10889;DHT22;5497;51.388;6.780;2022-12-11T01:13:25;2.50;99.90
10889;DHT22;5497;51.388;6.780;2022-12-11T01:15:53;2.60;99.90
10889;DHT22;5497;51.388;6.780;2022-12-11T01:18:20;2.60;99.90
10889;DHT22;5497;51.388;6.780;2022-12-11T01:20:50;2.60;99.90
10889;DHT22;5497;51.388;6.780;2022-12-11T01:23:17;2.60;99.90
10889;DHT22;5497;51.388;6.780;2022-12-11T01:25:47;2.50;99.90
10889;DHT22;5497;51.388;6.780;2022-12-11T01:28:14;2.50;99.90
10889;DHT22;5497;51.388;6.780;2022-12-11T01:30:41;2.50;99.90
10889;DHT22;5497;51.388;6.780;2022-12-11T01:33:10;2.50;99.90
10889;DHT22;5497;51.388;6.780;2022-12-11T01:35:38;2.50;99.90
10889;DHT22;5497;51.388;6.780;2022-12-11T01:38:15;2.10;99.90
10889;DHT22;5497;51.388;6.780;2022-12-11T01:40:44;2.50;99.90
10889;DHT22;5497;51.388;6.780;2022-12-11T01:43:11;2.60;99.90
10889;DHT22;5497;51.388;6.780;2022-12-11T01:45:39;2.60;99.90
10889;DHT22;5497;51.388;6.780;2022-12-11T01:48:07;2.60;99.90
10889;DHT22;5497;51.388;6.780;2022-12-11T01:50:38;2.60;99.90
10889;DHT22;5497;51.388;6.780;2022-12-11T01:53:08;2.60;99.90
10889;DHT22;5497;51.388;6.780;2022-12-11T01:58:30;2.60;99.90
10889;DHT22;5497;51.388;6.780;2022-12-11T02:00:58;2.50;99.90
10889;DHT22;5497;51.388;6.780;2022-12-11T02:03:27;2.50;99.90
10889;DHT22;5497;51.388;6.780;2022-12-11T02:05:58;2.50;99.90
10889;DHT22;5497;51.388;6.780;2022-12-11T02:08:25;2.50;99.90
10889;DHT22;5497;51.388;6.780;2022-12-11T02:10:58;2.60;99.90
10889;DHT22;5497;51.388;6.780;2022-12-11T02:13:29;2.60;99.90
10889;DHT22;5497;51.388;6.780;2022-12-11T02:15:58;2.60;99.90
10889;DHT22;5497;51.388;6.780;2022-12-11T02:18:33;2.60;99.90
10889;DHT22;5497;51.388;6.780;2022-12-11T02:21:05;2.60;99.90
10889;DHT22;5497;51.388;6.780;2022-12-11T02:23:57;2.60;99.90
10889;DHT22;5497;51.388;6.780;2022-12-11T02:26:35;2.60;99.90
10889;DHT22;5497;51.388;6.780;2022-12-11T02:29:12;2.70;99.90
10889;DHT22;5497;51.388;6.780;2022-12-11T02:31:43;2.70;99.90
10889;DHT22;5497;51.388;6.780;2022-12-11T02:34:12;2.70;99.90
10889;DHT22;5497;51.388;6.780;2022-12-11T02:36:42;2.70;99.90
10889;DHT22;5497;51.388;6.780;2022-12-11T02:39:11;2.70;99.90
10889;DHT22;5497;51.388;6.780;2022-12-11T02:41:40;2.70;99.90
10889;DHT22;5497;51.388;6.780;2022-12-11T02:44:09;4.40;99.90
10889;DHT22;5497;51.388;6.780;2022-12-11T02:46:38;2.70;99.90
10889;DHT22;5497;51.388;6.780;2022-12-11T02:49:05;2.80;99.90
10889;DHT22;5497;51.388;6.780;2022-12-11T02:51:33;2.80;99.90
10889;DHT22;5497;51.388;6.780;2022-12-11T02:54:02;2.80;99.90
10889;DHT22;5497;51.388;6.780;2022-12-11T02:56:32;2.80;99.90
10889;DHT22;5497;51.388;6.780;2022-12-11T02:59:00;2.80;99.90
10889;DHT22;5497;51.388;6.780;2022-12-11T03:01:29;2.80;99.90
10889;DHT22;5497;51.388;6.780;2022-12-11T03:03:59;2.80;99.90
10889;DHT22;5497;51.388;6.780;2022-12-11T03:06:31;2.80;99.90
10889;DHT22;5497;51.388;6.780;2022-12-11T03:08:58;2.80;99.90
10889;DHT22;5497;51.388;6.780;2022-12-11T03:11:25;3.00;99.90
10889;DHT22;5497;51.388;6.780;2022-12-11T03:13:52;2.80;99.90
10889;DHT22;5497;51.388;6.780;2022-12-11T03:16:21;2.80;99.90
10889;DHT22;5497;51.388;6.780;2022-12-11T03:18:54;2.90;99.90
10889;DHT22;5497;51.388;6.780;2022-12-11T03:21:26;2.80;99.90
10889;DHT22;5497;51.388;6.780;2022-12-11T03:23:56;2.90;99.90
10889;DHT22;5497;51.388;6.780;2022-12-11T03:26:28;2.90;99.90
10889;DHT22;5497;51.388;6.780;2022-12-11T03:28:59;2.90;99.90
10889;DHT22;5497;51.388;6.780;2022-12-11T03:31:28;2.90;99.90
10889;DHT22;5497;51.388;6.780;2022-12-11T03:33:58;2.90;99.90
10889;DHT22;5497;51.388;6.780;2022-12-11T03:36:34;2.90;99.90
10889;DHT22;5497;51.388;6.780;2022-12-11T03:39:04;2.80;99.90
10889;DHT22;5497;51.388;6.780;2022-12-11T03:41:33;2.90;99.90
10889;DHT22;5497;51.388;6.780;2022-12-11T03:44:02;2.90;99.90
10889;DHT22;5497;51.388;6.780;2022-12-11T03:46:31;2.90;99.90
10889;DHT22;5497;51.388;6.780;2022-12-11T03:49:00;2.90;99.90
10889;DHT22;5497;51.388;6.780;2022-12-11T03:51:28;2.80;99.90
10889;DHT22;5497;51.388;6.780;2022-12-11T03:53:58;2.90;99.90
10889;DHT22;5497;51.388;6.780;2022-12-11T03:56:26;2.90;99.90
10889;DHT22;5497;51.388;6.780;2022-12-11T03:58:55;2.90;99.90
10889;DHT22;5497;51.388;6.780;2022-12-11T04:01:22;2.90;99.90
10889;DHT22;5497;51.388;6.780;2022-12-11T04:03:49;2.90;99.90
10889;DHT22;5497;51.388;6.780;2022-12-11T04:06:18;2.80;99.90
10889;DHT22;5497;51.388;6.780;2022-12-11T04:08:45;2.80;99.90
10889;DHT22;5497;51.388;6.780;2022-12-11T04:11:13;2.80;99.90
10889;DHT22;5497;51.388;6.780;2022-12-11T04:13:57;2.80;99.90
10889;DHT22;5497;51.388;6.780;2022-12-11T04:16:42;2.80;99.90
10889;DHT22;5497;51.388;6.780;2022-12-11T04:19:09;2.80;99.90
10889;DHT22;5497;51.388;6.780;2022-12-11T04:21:53;2.80;99.90
10889;DHT22;5497;51.388;6.780;2022-12-11T04:24:38;2.80;99.90
10889;DHT22;5497;51.388;6.780;2022-12-11T04:27:06;2.80;99.90
10889;DHT22;5497;51.388;6.780;2022-12-11T04:29:33;2.80;99.90
10889;DHT22;5497;51.388;6.780;2022-12-11T04:32:00;2.80;99.90
10889;DHT22;5497;51.388;6.780;2022-12-11T04:34:30;2.80;99.90
10889;DHT22;5497;51.388;6.780;2022-12-11T04:36:57;2.80;99.90
10889;DHT22;5497;51.388;6.780;2022-12-11T04:39:24;2.80;99.90
10889;DHT22;5497;51.388;6.780;2022-12-11T04:41:51;2.80;99.90
10889;DHT22;5497;51.388;6.780;2022-12-11T04:44:20;2.80;99.90
10889;DHT22;5497;51.388;6.780;2022-12-11T04:46:47;2.80;99.90
10889;DHT22;5497;51.388;6.780;2022-12-11T04:49:14;2.80;99.90
10889;DHT22;5497;51.388;6.780;2022-12-11T04:51:41;2.80;99.90
10889;DHT22;5497;51.388;6.780;2022-12-11T04:54:08;2.80;99.90
10889;DHT22;5497;51.388;6.780;2022-12-11T04:56:36;2.80;99.90
10889;DHT22;5497;51.388;6.780;2022-12-11T04:59:02;2.90;99.90
10889;DHT22;5497;51.388;6.780;2022-12-11T05:01:31;2.90;99.90
10889;DHT22;5497;51.388;6.780;2022-12-11T05:03:58;2.90;99.90
10889;DHT22;5497;51.388;6.780;2022-12-11T05:06:25;2.90;99.90
10889;DHT22;5497;51.388;6.780;2022-12-11T05:08:52;2.90;99.90
10889;DHT22;5497;51.388;6.780;2022-12-11T05:11:19;2.90;99.90
10889;DHT22;5497;51.388;6.780;2022-12-11T05:13:46;2.90;99.90
10889;DHT22;5497;51.388;6.780;2022-12-11T05:16:13;2.80;99.90
10889;DHT22;5497;51.388;6.780;2022-12-11T05:18:42;2.80;99.90
10889;DHT22;5497;51.388;6.780;2022-12-11T05:21:11;2.70;99.90
10889;DHT22;5497;51.388;6.780;2022-12-11T05:23:38;2.70;99.90
10889;DHT22;5497;51.388;6.780;2022-12-11T05:26:06;2.80;99.90
10889;DHT22;5497;51.388;6.780;2022-12-11T05:28:34;2.80;99.90
10889;DHT22;5497;51.388;6.780;2022-12-11T05:31:03;2.70;99.90
10889;DHT22;5497;51.388;6.780;2022-12-11T05:33:30;2.80;99.90
10889;DHT22;5497;51.388;6.780;2022-12-11T05:36:00;2.80;99.90
10889;DHT22;5497;51.388;6.780;2022-12-11T05:38:27;2.80;99.90
10889;DHT22;5497;51.388;6.780;2022-12-11T05:40:55;2.80;99.90
10889;DHT22;5497;51.388;6.780;2022-12-11T05:43:22;2.80;99.90
10889;DHT22;5497;51.388;6.780;2022-12-11T05:45:49;2.80;99.90
10889;DHT22;5497;51.388;6.780;2022-12-11T05:48:18;2.90;99.90
10889;DHT22;5497;51.388;6.780;2022-12-11T05:50:55;2.90;99.90
10889;DHT22;5497;51.388;6.780;2022-12-11T05:53:23;2.90;99.90
10889;DHT22;5497;51.388;6.780;2022-12-11T05:55:50;2.90;99.90
10889;DHT22;5497;51.388;6.780;2022-12-11T05:58:17;2.90;99.90
10889;DHT22;5497;51.388;6.780;2022-12-11T06:00:44;2.90;99.90
10889;DHT22;5497;51.388;6.780;2022-12-11T06:03:11;2.90;99.90
10889;DHT22;5497;51.388;6.780;2022-12-11T06:05:38;2.90;99.90
10889;DHT22;5497;51.388;6.780;2022-12-11T06:08:05;2.90;99.90
10889;DHT22;5497;51.388;6.780;2022-12-11T06:10:33;2.90;99.90
10889;DHT22;5497;51.388;6.780;2022-12-11T06:13:00;2.90;99.90
10889;DHT22;5497;51.388;6.780;2022-12-11T06:15:27;2.90;99.90
10889;DHT22;5497;51.388;6.780;2022-12-11T06:17:54;2.90;99.90
10889;DHT22;5497;51.388;6.780;2022-12-11T06:20:21;2.90;99.90
10889;DHT22;5497;51.388;6.780;2022-12-11T06:22:48;2.90;99.90
10889;DHT22;5497;51.388;6.780;2022-12-11T06:25:15;2.90;99.90
10889;DHT22;5497;51.388;6.780;2022-12-11T06:27:44;2.80;99.90
10889;DHT22;5497;51.388;6.780;2022-12-11T06:30:11;2.80;99.90
10889;DHT22;5497;51.388;6.780;2022-12-11T06:32:38;2.90;99.90
10889;DHT22;5497;51.388;6.780;2022-12-11T06:35:05;2.40;99.90
10889;DHT22;5497;51.388;6.780;2022-12-11T06:39:59;2.90;99.90
10889;DHT22;5497;51.388;6.780;2022-12-11T06:42:27;2.90;99.90
10889;DHT22;5497;51.388;6.780;2022-12-11T06:44:56;2.90;99.90
10889;DHT22;5497;51.388;6.780;2022-12-11T06:47:24;2.90;99.90
10889;DHT22;5497;51.388;6.780;2022-12-11T06:49:52;2.90;99.90
10889;DHT22;5497;51.388;6.780;2022-12-11T06:52:19;2.80;99.90
10889;DHT22;5497;51.388;6.780;2022-12-11T06:54:46;2.90;99.90
10889;DHT22;5497;51.388;6.780;2022-12-11T06:57:13;2.90;99.90
10889;DHT22;5497;51.388;6.780;2022-12-11T06:59:40;2.90;99.90
10889;DHT22;5497;51.388;6.780;2022-12-11T07:02:09;2.90;99.90
10889;DHT22;5497;51.388;6.780;2022-12-11T07:04:37;2.90;99.90
10889;DHT22;5497;51.388;6.780;2022-12-11T07:07:04;2.90;99.90
10889;DHT22;5497;51.388;6.780;2022-12-11T07:09:31;2.90;99.90
10889;DHT22;5497;51.388;6.780;2022-12-11T07:11:58;2.90;99.90
10889;DHT22;5497;51.388;6.780;2022-12-11T07:14:25;2.90;99.90
10889;DHT22;5497;51.388;6.780;2022-12-11T07:16:52;2.80;99.90
10889;DHT22;5497;51.388;6.780;2022-12-11T07:19:20;2.80;99.90
10889;DHT22;5497;51.388;6.780;2022-12-11T07:21:47;2.90;99.90
10889;DHT22;5497;51.388;6.780;2022-12-11T07:24:14;2.90;99.90
10889;DHT22;5497;51.388;6.780;2022-12-11T07:26:41;2.90;99.90
10889;DHT22;5497;51.388;6.780;2022-12-11T07:29:08;3.00;99.90
10889;DHT22;5497;51.388;6.780;2022-12-11T07:31:35;3.00;99.90
10889;DHT22;5497;51.388;6.780;2022-12-11T07:34:03;3.00;99.90
10889;DHT22;5497;51.388;6.780;2022-12-11T07:36:32;3.00;99.90
10889;DHT22;5497;51.388;6.780;2022-12-11T07:38:59;3.00;99.90
10889;DHT22;5497;51.388;6.780;2022-12-11T07:41:26;3.00;99.90
10889;DHT22;5497;51.388;6.780;2022-12-11T07:43:53;3.00;99.90
10889;DHT22;5497;51.388;6.780;2022-12-11T07:46:22;3.00;99.90
10889;DHT22;5497;51.388;6.780;2022-12-11T07:48:49;3.00;99.90
10889;DHT22;5497;51.388;6.780;2022-12-11T07:51:17;3.00;99.90
10889;DHT22;5497;51.388;6.780;2022-12-11T07:53:46;3.00;99.90
10889;DHT22;5497;51.388;6.780;2022-12-11T07:56:13;3.00;99.90
10889;DHT22;5497;51.388;6.780;2022-12-11T07:58:40;3.00;99.90
10889;DHT22;5497;51.388;6.780;2022-12-11T08:01:09;3.00;99.90
10889;DHT22;5497;51.388;6.780;2022-12-11T08:03:36;3.00;99.90
10889;DHT22;5497;51.388;6.780;2022-12-11T08:06:03;3.00;99.90
10889;DHT22;5497;51.388;6.780;2022-12-11T08:08:31;3.00;99.90
10889;DHT22;5497;51.388;6.780;2022-12-11T08:11:00;2.90;99.90
10889;DHT22;5497;51.388;6.780;2022-12-11T08:13:27;2.90;99.90
10889;DHT22;5497;51.388;6.780;2022-12-11T08:15:54;2.90;99.90
10889;DHT22;5497;51.388;6.780;2022-12-11T08:18:22;2.90;99.90
10889;DHT22;5497;51.388;6.780;2022-12-11T08:20:50;2.90;99.90
10889;DHT22;5497;51.388;6.780;2022-12-11T08:23:18;3.00;99.90
10889;DHT22;5497;51.388;6.780;2022-12-11T08:25:45;3.00;99.90
10889;DHT22;5497;51.388;6.780;2022-12-11T08:28:14;3.00;99.90
10889;DHT22;5497;51.388;6.780;2022-12-11T08:30:41;3.00;99.90
10889;DHT22;5497;51.388;6.780;2022-12-11T08:33:08;3.00;99.90
10889;DHT22;5497;51.388;6.780;2022-12-11T08:35:37;3.00;99.90
10889;DHT22;5497;51.388;6.780;2022-12-11T08:38:04;3.00;99.90
10889;DHT22;5497;51.388;6.780;2022-12-11T08:40:31;3.00;99.90
10889;DHT22;5497;51.388;6.780;2022-12-11T08:43:03;3.00;99.90
10889;DHT22;5497;51.388;6.780;2022-12-11T08:45:33;3.00;99.90
10889;DHT22;5497;51.388;6.780;2022-12-11T08:48:00;3.10;99.90
10889;DHT22;5497;51.388;6.780;2022-12-11T08:50:29;3.10;99.90
10889;DHT22;5497;51.388;6.780;2022-12-11T08:52:56;3.20;99.90
10889;DHT22;5497;51.388;6.780;2022-12-11T08:55:23;3.20;99.90
10889;DHT22;5497;51.388;6.780;2022-12-11T08:57:51;3.20;99.90
10889;DHT22;5497;51.388;6.780;2022-12-11T09:00:18;3.20;99.90
10889;DHT22;5497;51.388;6.780;2022-12-11T09:02:47;3.30;99.90
10889;DHT22;5497;51.388;6.780;2022-12-11T09:05:14;3.30;99.90
10889;DHT22;5497;51.388;6.780;2022-12-11T09:07:42;3.30;99.90
10889;DHT22;5497;51.388;6.780;2022-12-11T09:10:09;3.30;99.90
10889;DHT22;5497;51.388;6.780;2022-12-11T09:12:36;3.40;99.90
10889;DHT22;5497;51.388;6.780;2022-12-11T09:15:14;3.40;99.90
10889;DHT22;5497;51.388;6.780;2022-12-11T09:17:42;3.40;99.90
10889;DHT22;5497;51.388;6.780;2022-12-11T09:20:11;3.40;99.90
10889;DHT22;5497;51.388;6.780;2022-12-11T09:22:38;3.50;99.90
10889;DHT22;5497;51.388;6.780;2022-12-11T09:25:07;3.40;99.90
10889;DHT22;5497;51.388;6.780;2022-12-11T09:27:34;3.50;99.90
10889;DHT22;5497;51.388;6.780;2022-12-11T09:30:01;3.40;99.90
10889;DHT22;5497;51.388;6.780;2022-12-11T09:32:28;3.50;99.90
10889;DHT22;5497;51.388;6.780;2022-12-11T09:34:56;3.40;99.90
10889;DHT22;5497;51.388;6.780;2022-12-11T09:37:24;3.50;99.90
10889;DHT22;5497;51.388;6.780;2022-12-11T09:39:51;3.50;99.90
10889;DHT22;5497;51.388;6.780;2022-12-11T09:42:19;3.40;99.90
10889;DHT22;5497;51.388;6.780;2022-12-11T09:44:47;3.40;99.90
10889;DHT22;5497;51.388;6.780;2022-12-11T09:47:20;3.50;99.90
10889;DHT22;5497;51.388;6.780;2022-12-11T09:49:49;3.50;99.90
10889;DHT22;5497;51.388;6.780;2022-12-11T09:52:17;3.60;99.90
10889;DHT22;5497;51.388;6.780;2022-12-11T09:54:48;3.60;99.90
10889;DHT22;5497;51.388;6.780;2022-12-11T09:57:23;3.70;99.90
10889;DHT22;5497;51.388;6.780;2022-12-11T09:59:56;3.70;99.90
10889;DHT22;5497;51.388;6.780;2022-12-11T10:02:32;3.70;99.90
10889;DHT22;5497;51.388;6.780;2022-12-11T10:05:07;3.80;99.90
10889;DHT22;5497;51.388;6.780;2022-12-11T10:07:44;3.90;99.90
10889;DHT22;5497;51.388;6.780;2022-12-11T10:10:17;3.90;99.90
10889;DHT22;5497;51.388;6.780;2022-12-11T10:12:49;3.90;99.90
10889;DHT22;5497;51.388;6.780;2022-12-11T10:15:25;4.00;99.90
10889;DHT22;5497;51.388;6.780;2022-12-11T10:17:54;4.00;99.90
10889;DHT22;5497;51.388;6.780;2022-12-11T10:20:23;4.00;99.90
10889;DHT22;5497;51.388;6.780;2022-12-11T10:22:52;4.00;99.90
10889;DHT22;5497;51.388;6.780;2022-12-11T10:25:23;4.00;99.90
10889;DHT22;5497;51.388;6.780;2022-12-11T10:27:53;3.90;99.90
10889;DHT22;5497;51.388;6.780;2022-12-11T10:30:21;3.90;99.90
10889;DHT22;5497;51.388;6.780;2022-12-11T10:32:52;3.90;99.90
10889;DHT22;5497;51.388;6.780;2022-12-11T10:35:27;3.90;99.90
10889;DHT22;5497;51.388;6.780;2022-12-11T10:37:55;4.00;99.90
10889;DHT22;5497;51.388;6.780;2022-12-11T10:40:27;4.10;99.90
10889;DHT22;5497;51.388;6.780;2022-12-11T10:42:54;4.10;99.90
10889;DHT22;5497;51.388;6.780;2022-12-11T10:45:21;4.20;99.90
10889;DHT22;5497;51.388;6.780;2022-12-11T10:47:48;4.30;99.90
10889;DHT22;5497;51.388;6.780;2022-12-11T10:50:23;4.30;99.90
10889;DHT22;5497;51.388;6.780;2022-12-11T10:52:50;4.40;99.90
10889;DHT22;5497;51.388;6.780;2022-12-11T10:55:19;4.50;99.90
10889;DHT22;5497;51.388;6.780;2022-12-11T10:58:00;4.60;99.90
10889;DHT22;5497;51.388;6.780;2022-12-11T11:00:30;4.60;99.90
10889;DHT22;5497;51.388;6.780;2022-12-11T11:02:57;4.60;99.90
10889;DHT22;5497;51.388;6.780;2022-12-11T11:05:28;4.60;99.90
10889;DHT22;5497;51.388;6.780;2022-12-11T11:08:01;4.60;99.90
10889;DHT22;5497;51.388;6.780;2022-12-11T11:10:29;4.60;99.90
10889;DHT22;5497;51.388;6.780;2022-12-11T11:13:00;4.60;99.90
10889;DHT22;5497;51.388;6.780;2022-12-11T11:15:28;4.60;99.90
10889;DHT22;5497;51.388;6.780;2022-12-11T11:17:56;4.60;99.90
10889;DHT22;5497;51.388;6.780;2022-12-11T11:20:27;4.60;99.90
10889;DHT22;5497;51.388;6.780;2022-12-11T11:22:55;4.50;99.90
10889;DHT22;5497;51.388;6.780;2022-12-11T11:25:23;4.50;99.90
10889;DHT22;5497;51.388;6.780;2022-12-11T11:27:51;4.50;99.90
10889;DHT22;5497;51.388;6.780;2022-12-11T11:30:21;4.50;99.90
10889;DHT22;5497;51.388;6.780;2022-12-11T11:32:49;4.50;99.90
10889;DHT22;5497;51.388;6.780;2022-12-11T11:35:18;4.60;99.90
10889;DHT22;5497;51.388;6.780;2022-12-11T11:37:52;4.60;99.90
10889;DHT22;5497;51.388;6.780;2022-12-11T11:40:24;4.60;99.90
10889;DHT22;5497;51.388;6.780;2022-12-11T11:42:55;4.70;99.90
10889;DHT22;5497;51.388;6.780;2022-12-11T11:45:25;4.70;99.90
10889;DHT22;5497;51.388;6.780;2022-12-11T11:47:57;4.90;99.90
10889;DHT22;5497;51.388;6.780;2022-12-11T11:50:28;4.90;99.90
10889;DHT22;5497;51.388;6.780;2022-12-11T11:54:19;5.00;99.90
10889;DHT22;5497;51.388;6.780;2022-12-11T11:56:50;5.00;99.90
10889;DHT22;5497;51.388;6.780;2022-12-11T11:59:20;5.10;99.90
10889;DHT22;5497;51.388;6.780;2022-12-11T12:01:54;5.10;99.90
10889;DHT22;5497;51.388;6.780;2022-12-11T12:04:21;5.10;99.90
10889;DHT22;5497;51.388;6.780;2022-12-11T12:07:04;5.00;99.90
10889;DHT22;5497;51.388;6.780;2022-12-11T12:09:36;5.00;99.90
10889;DHT22;5497;51.388;6.780;2022-12-11T12:12:10;4.90;99.90
10889;DHT22;5497;51.388;6.780;2022-12-11T12:14:40;5.00;99.90
10889;DHT22;5497;51.388;6.780;2022-12-11T12:17:14;4.90;99.90
10889;DHT22;5497;51.388;6.780;2022-12-11T12:19:47;4.90;99.90
10889;DHT22;5497;51.388;6.780;2022-12-11T12:25:02;4.90;99.90
10889;DHT22;5497;51.388;6.780;2022-12-11T12:27:34;4.90;99.90
10889;DHT22;5497;51.388;6.780;2022-12-11T12:30:03;4.90;99.90
10889;DHT22;5497;51.388;6.780;2022-12-11T12:32:39;4.90;99.90
10889;DHT22;5497;51.388;6.780;2022-12-11T12:35:12;4.90;99.90
10889;DHT22;5497;51.388;6.780;2022-12-11T12:37:50;5.10;99.90
10889;DHT22;5497;51.388;6.780;2022-12-11T12:40:25;5.10;99.90
10889;DHT22;5497;51.388;6.780;2022-12-11T12:42:58;5.20;99.90
10889;DHT22;5497;51.388;6.780;2022-12-11T12:45:33;5.30;99.90
10889;DHT22;5497;51.388;6.780;2022-12-11T12:48:05;5.30;99.90
10889;DHT22;5497;51.388;6.780;2022-12-11T12:50:35;5.40;99.90
10889;DHT22;5497;51.388;6.780;2022-12-11T12:53:03;5.40;99.90
10889;DHT22;5497;51.388;6.780;2022-12-11T12:55:31;5.40;99.90
10889;DHT22;5497;51.388;6.780;2022-12-11T12:57:59;5.40;99.90
10889;DHT22;5497;51.388;6.780;2022-12-11T13:00:31;5.40;99.90
10889;DHT22;5497;51.388;6.780;2022-12-11T13:02:59;5.40;99.90
10889;DHT22;5497;51.388;6.780;2022-12-11T13:05:29;5.40;99.90
10889;DHT22;5497;51.388;6.780;2022-12-11T13:07:59;5.40;99.90
10889;DHT22;5497;51.388;6.780;2022-12-11T13:10:35;5.40;99.90
10889;DHT22;5497;51.388;6.780;2022-12-11T13:13:04;5.30;99.90
10889;DHT22;5497;51.388;6.780;2022-12-11T13:15:36;5.30;99.90
10889;DHT22;5497;51.388;6.780;2022-12-11T13:18:28;5.20;99.90
10889;DHT22;5497;51.388;6.780;2022-12-11T13:20:55;5.20;99.90
10889;DHT22;5497;51.388;6.780;2022-12-11T13:23:25;5.10;99.90
10889;DHT22;5497;51.388;6.780;2022-12-11T13:25:54;5.00;99.90
10889;DHT22;5497;51.388;6.780;2022-12-11T13:28:23;4.90;99.90
10889;DHT22;5497;51.388;6.780;2022-12-11T13:33:40;4.80;99.90
10889;DHT22;5497;51.388;6.780;2022-12-11T13:36:24;4.80;99.90
10889;DHT22;5497;51.388;6.780;2022-12-11T13:38:53;4.80;99.90
10889;DHT22;5497;51.388;6.780;2022-12-11T13:41:21;4.90;99.90
10889;DHT22;5497;51.388;6.780;2022-12-11T13:43:48;4.80;99.90
10889;DHT22;5497;51.388;6.780;2022-12-11T13:46:18;4.80;99.90
10889;DHT22;5497;51.388;6.780;2022-12-11T13:48:47;4.80;99.90
10889;DHT22;5497;51.388;6.780;2022-12-11T13:51:15;4.70;99.90
10889;DHT22;5497;51.388;6.780;2022-12-11T13:53:43;4.70;99.90
10889;DHT22;5497;51.388;6.780;2022-12-11T13:56:12;4.70;99.90
10889;DHT22;5497;51.388;6.780;2022-12-11T13:58:41;4.70;99.90
10889;DHT22;5497;51.388;6.780;2022-12-11T14:01:08;4.60;99.90
10889;DHT22;5497;51.388;6.780;2022-12-11T14:03:38;4.60;99.90
10889;DHT22;5497;51.388;6.780;2022-12-11T14:08:34;4.60;99.90
10889;DHT22;5497;51.388;6.780;2022-12-11T14:11:03;4.50;99.90
10889;DHT22;5497;51.388;6.780;2022-12-11T14:13:32;4.50;99.90
10889;DHT22;5497;51.388;6.780;2022-12-11T14:15:59;4.50;99.90
10889;DHT22;5497;51.388;6.780;2022-12-11T14:18:27;4.40;99.90
10889;DHT22;5497;51.388;6.780;2022-12-11T14:20:55;4.40;99.90
10889;DHT22;5497;51.388;6.780;2022-12-11T14:23:24;4.40;99.90
10889;DHT22;5497;51.388;6.780;2022-12-11T14:25:52;4.30;99.90
10889;DHT22;5497;51.388;6.780;2022-12-11T14:28:22;4.30;99.90
10889;DHT22;5497;51.388;6.780;2022-12-11T14:30:52;4.30;99.90
10889;DHT22;5497;51.388;6.780;2022-12-11T14:33:21;4.20;99.90
10889;DHT22;5497;51.388;6.780;2022-12-11T14:35:48;4.20;99.90
10889;DHT22;5497;51.388;6.780;2022-12-11T14:38:17;4.20;99.90
10889;DHT22;5497;51.388;6.780;2022-12-11T14:40:46;4.20;99.90
10889;DHT22;5497;51.388;6.780;2022-12-11T14:43:18;4.10;99.90
10889;DHT22;5497;51.388;6.780;2022-12-11T14:45:49;4.10;99.90
10889;DHT22;5497;51.388;6.780;2022-12-11T14:48:21;4.10;99.90
10889;DHT22;5497;51.388;6.780;2022-12-11T14:50:50;4.00;99.90
10889;DHT22;5497;51.388;6.780;2022-12-11T14:53:22;4.00;99.90
10889;DHT22;5497;51.388;6.780;2022-12-11T14:55:50;4.00;99.90
10889;DHT22;5497;51.388;6.780;2022-12-11T14:58:20;3.90;99.90
10889;DHT22;5497;51.388;6.780;2022-12-11T15:00:56;3.90;99.90
10889;DHT22;5497;51.388;6.780;2022-12-11T15:03:29;3.90;99.90
10889;DHT22;5497;51.388;6.780;2022-12-11T15:05:56;3.80;99.90
10889;DHT22;5497;51.388;6.780;2022-12-11T15:08:24;3.80;99.90
10889;DHT22;5497;51.388;6.780;2022-12-11T15:10:58;3.80;99.90
10889;DHT22;5497;51.388;6.780;2022-12-11T15:13:27;2.20;99.90
10889;DHT22;5497;51.388;6.780;2022-12-11T15:15:55;3.70;99.90
10889;DHT22;5497;51.388;6.780;2022-12-11T15:18:26;3.70;99.90
10889;DHT22;5497;51.388;6.780;2022-12-11T15:20:55;3.70;99.90
10889;DHT22;5497;51.388;6.780;2022-12-11T15:23:23;3.70;99.90
10889;DHT22;5497;51.388;6.780;2022-12-11T15:25:51;3.60;99.90
10889;DHT22;5497;51.388;6.780;2022-12-11T15:28:27;3.60;99.90
10889;DHT22;5497;51.388;6.780;2022-12-11T15:30:56;3.40;99.90
10889;DHT22;5497;51.388;6.780;2022-12-11T15:33:24;3.40;99.90
10889;DHT22;5497;51.388;6.780;2022-12-11T15:35:53;3.40;99.90
10889;DHT22;5497;51.388;6.780;2022-12-11T15:41:09;3.40;99.90
10889;DHT22;5497;51.388;6.780;2022-12-11T15:43:38;3.30;99.90
10889;DHT22;5497;51.388;6.780;2022-12-11T15:46:07;3.40;99.90
10889;DHT22;5497;51.388;6.780;2022-12-11T15:48:34;3.40;99.90
10889;DHT22;5497;51.388;6.780;2022-12-11T15:51:01;3.40;99.90
10889;DHT22;5497;51.388;6.780;2022-12-11T15:53:29;3.30;99.90
10889;DHT22;5497;51.388;6.780;2022-12-11T15:55:56;3.40;99.90
10889;DHT22;5497;51.388;6.780;2022-12-11T15:58:24;3.30;99.90
10889;DHT22;5497;51.388;6.780;2022-12-11T16:00:53;3.30;99.90
10889;DHT22;5497;51.388;6.780;2022-12-11T16:03:22;3.30;99.90
10889;DHT22;5497;51.388;6.780;2022-12-11T16:05:49;3.30;99.90
10889;DHT22;5497;51.388;6.780;2022-12-11T16:08:18;3.30;99.90
10889;DHT22;5497;51.388;6.780;2022-12-11T16:10:45;3.30;99.90
10889;DHT22;5497;51.388;6.780;2022-12-11T16:13:12;3.30;99.90
10889;DHT22;5497;51.388;6.780;2022-12-11T16:15:40;3.30;99.90
10889;DHT22;5497;51.388;6.780;2022-12-11T16:18:08;3.20;99.90
10889;DHT22;5497;51.388;6.780;2022-12-11T16:20:38;3.20;99.90
10889;DHT22;5497;51.388;6.780;2022-12-11T16:23:05;3.20;99.90
10889;DHT22;5497;51.388;6.780;2022-12-11T16:25:32;3.30;99.90
10889;DHT22;5497;51.388;6.780;2022-12-11T16:28:00;3.20;99.90
10889;DHT22;5497;51.388;6.780;2022-12-11T16:30:27;3.30;99.90
10889;DHT22;5497;51.388;6.780;2022-12-11T16:32:54;3.30;99.90